Das ist die Wetter- und Hausseite der Bittkau's aus Magdeburg Ottersleben


Hier werden aktuelle Daten aus der privaten Wetterstation und

andere lokale Wettervorhersagen bereitgestellt




Thunder radar more information blitzortung!


Rain radar more information rain snow radar



Es ist keine erhöhte Aufmerksamkeit aufgrund des Wetters notwendig.    Es gibt keine Warnungen.

METAR-Meldungen aus der Umgebung

   
EDDP - Leipzig
Aktualisierung: 22.05.2018 1:20
Klar  
Klar  
   Wind: Osten 16.7 km/h
Wind: Osten 16.7 km/h
Temperatur: 23°C
Taupunkt: 9°C
Luftfeuchte: 41%
Luftdruck: 1014 hPa
Sichtbarkeit: More than 10 km
Bewölkung: Klar
EDDP 221120Z 08009KT 050V130 CAVOK 23/09 Q1014 NOSIG
EDDC - Dresden
Aktualisierung: 22.05.2018 1:20
Klar  
Klar  
   Wind: ONO 14.8 km/h
Wind: ONO 14.8 km/h
Temperatur: 22°C
Taupunkt: 6°C
Luftfeuchte: 36%
Luftdruck: 1014 hPa
Sichtbarkeit: More than 10 km
Bewölkung: Klar
EDDC 221120Z 07008KT 030V120 CAVOK 22/06 Q1014 NOSIG
EDDE - Erfurt
Aktualisierung: 22.05.2018 1:20
Klar  
Klar  
   Wind: ONO 14.8 km/h
Wind: ONO 14.8 km/h
Temperatur: 23°C
Taupunkt: 9°C
Luftfeuchte: 41%
Luftdruck: 1014 hPa
Sichtbarkeit: More than 10 km
Bewölkung: Klar
EDDE 221120Z 07008KT 030V120 CAVOK 23/09 Q1014 NOSIG
EDVE - Braunschweig
Aktualisierung: 22.05.2018 1:20
Klar  
Klar  
   Wind: Osten 20.4 km/h
Wind: Osten 20.4 km/h
Temperatur: 24°C
Taupunkt: 8°C
Luftfeuchte: 36%
Luftdruck: 1014 hPa
Sichtbarkeit: More than 10 km
Bewölkung: Klar
EDVE 221120Z 10011KT 060V130 CAVOK 24/08 Q1014
EDDV - Hannover
Aktualisierung: 22.05.2018 1:20
Klar  
Klar  
   Wind: OSO 13 km/h
Wind: OSO 13 km/h
Temperatur: 24°C
Taupunkt: 8°C
Luftfeuchte: 36%
Luftdruck: 1014 hPa
Sichtbarkeit: More than 10 km
Bewölkung: Klar
EDDV 221120Z 12007KT 050V200 CAVOK 24/08 Q1014 NOSIG
EDDT - Berlin
Aktualisierung: 22.05.2018 1:20
Klar  
Klar  
   Wind: Osten 14.8 km/h
Wind: Osten 14.8 km/h
Temperatur: 22°C
Taupunkt: 3°C
Luftfeuchte: 29%
Luftdruck: 1015 hPa
Sichtbarkeit: More than 10 km
Bewölkung: Klar
EDDT 221120Z 08008KT 020V150 CAVOK 22/03 Q1015 NOSIG
EDDE - Schwerin
Aktualisierung: 22.05.2018 1:20
Klar  
Klar  
   Wind: ONO 14.8 km/h
Wind: ONO 14.8 km/h
Temperatur: 23°C
Taupunkt: 9°C
Luftfeuchte: 41%
Luftdruck: 1014 hPa
Sichtbarkeit: More than 10 km
Bewölkung: Klar
EDDE 221120Z 07008KT 030V120 CAVOK 23/09 Q1014 NOSIG
EDHI - Hamburg
Aktualisierung: 22.05.2018 1:20
Klar  
Klar  
   Wind: Osten 18.5 km/h
Wind: Osten 18.5 km/h
Temperatur: 24°C
Taupunkt: 5°C
Luftfeuchte: 29%
Luftdruck: 1015 hPa
Sichtbarkeit: More than 10 km
Bewölkung: Klar
EDHI 221120Z 09010KT 050V150 CAVOK 24/05 Q1015
EDDK - Köln/Bonn
Aktualisierung: 22.05.2018 1:20
Schauer in der Nähe, Stark bewölkt  
Schauer in der Nähe, Stark bewölkt  
   Wind: variiert 3.7 km/h
Wind: variiert 3.7 km/h
Temperatur: 19°C
Taupunkt: 14°C
Luftfeuchte: 73%
Luftdruck: 1012 hPa
Bewölkt: Stark bewölkt
Sichtbarkeit: More than 10 km
Bewölkung: leicht bewölkt 1371.6 m,
Teilweise bewölkt 3048 m,
Stark bewölkt 8229.6 m
EDDK 221120Z VRB02KT 9999 VCSH FEW045CB SCT100 BKN270 19/14 Q1012 NOSIG
EDHL - Luebeck
Aktualisierung: 22.05.2018 1:20
Klar  
Klar  
   Wind: Osten 13 km/h
Wind: Osten 13 km/h
Temperatur: 22°C
Taupunkt: 6°C
Luftfeuchte: 36%
Luftdruck: 1016 hPa
Sichtbarkeit: More than 10 km
Bewölkung: Klar
EDHL 221120Z 09007KT 040V140 CAVOK 22/06 Q1016
  

Script entwickelt von  Saratoga-weather.org Angepasst für das Template von  Weerstation Leuven

Sie finden die Wetterinfo auch auf:

Wetternetzwerk Deutschland

European Weather Network

Weather Underground

Regionalwetter-SA

wetter.com

wxforum.de

Genutzte Hardware, Software und WEB Anbieter:

Wetterstation
Ventus W928-Ultimate

Wetterprogramm
Meteohub

WetterComputer
RaspberryPI

Anbieter
WEB Provider One.com

Ventus W928-Ultimate

Meteohub

RaspberryPI

WEB Provider One.com